Flight Track Log - Related Links

Times and Time Zones

All times are in EDT time to prevent confusion due to time zone crossing. See the UAL4457 flight status page for this flight to view local times or setup timezone preferences in your user account.

Time Position Orientation Groundspeed Altitude Reporting Facility
EDT Latitude Longitude Course Direction KTS MPH feet Rate Location/Type
Tue 05:25:42 PM 37.9753 -84.6792 225° Southwest 208 239 5,400  Level Indianapolis Center
Tue 05:26:44 PM 37.9289 -84.7347 223° Southwest 220 253 8,300 2,613 Climbing Indianapolis Center
Tue 05:27:46 PM 37.8831 -84.7967 227° Southwest 241 277 10,800 2,081 Climbing Indianapolis Center
Tue 05:28:00 PM 37.8575 -85.0332 241° Southwest  Level FlightAware Approximate
Tue 05:28:48 PM 37.8453 -84.8900 243° Southwest 295 339 12,600  Level Indianapolis Center
Tue 05:29:00 PM 37.8139 -85.1418 247° West  Level FlightAware Approximate
Tue 05:29:50 PM 37.8019 -85.0017 244° Southwest 307 353 15,200  Level Indianapolis Center
Tue 05:30:52 PM 37.7631 -85.1036 244° Southwest 318 366 17,200 1,790 Climbing Indianapolis Center
Tue 05:31:54 PM 37.7222 -85.2089 244° Southwest 330 380 18,900 1,742 Climbing Indianapolis Center
Tue 05:32:56 PM 37.6797 -85.3172 244° Southwest 341 392 20,800 1,839 Climbing Indianapolis Center
Tue 05:33:58 PM 37.6353 -85.4278 243° Southwest 349 402 22,700 1,742 Climbing Indianapolis Center
Tue 05:35:00 PM 37.5914 -85.5417 244° Southwest 349 402 24,400 1,548 Climbing Indianapolis Center
Tue 05:36:02 PM 37.5447 -85.6556 243° Southwest 358 412 25,900 1,403 Climbing Indianapolis Center
Tue 05:37:04 PM 37.5000 -85.7700 244° Southwest 362 417 27,300 1,210 Climbing Indianapolis Center
Tue 05:38:06 PM 37.4467 -85.9017 243° Southwest 369 425 28,400 1,016 Climbing Indianapolis Center
Tue 05:39:08 PM 37.4000 -86.0208 244° Southwest 375 432 29,400 919 Climbing Indianapolis Center
Tue 05:40:10 PM 37.3514 -86.1411 243° Southwest 381 438 30,300 919 Climbing Indianapolis Center
Tue 05:41:12 PM 37.3011 -86.2628 243° Southwest 389 448 31,300 955 Climbing Indianapolis Center
Tue 05:42:22 PM 37.2419 -86.4097 243° Southwest 394 453 32,400 969 Climbing Memphis Center
Tue 05:43:22 PM 37.1917 -86.5344 243° Southwest 399 459 33,400 800 Climbing Memphis Center
Tue 05:44:22 PM 37.1414 -86.6592 243° Southwest 399 459 34,000 300 Climbing Memphis Center
Tue 05:45:22 PM 37.0869 -86.7944 243° Southwest 399 459 34,000  Level Memphis Center
Tue 05:46:22 PM 37.0342 -86.9214 243° Southwest 399 459 34,000  Level Memphis Center
Tue 05:47:22 PM 36.9836 -87.0458 243° Southwest 399 459 34,000  Level Memphis Center
Tue 05:48:22 PM 36.9325 -87.1697 243° Southwest 399 459 34,000  Level Memphis Center
Tue 05:49:22 PM 36.8794 -87.2939 242° Southwest 399 459 34,000  Level Memphis Center
Tue 05:50:22 PM 36.8281 -87.4150 242° Southwest 399 459 34,000  Level Memphis Center
Tue 05:51:22 PM 36.7747 -87.5414 242° Southwest 399 459 34,000  Level Memphis Center
Tue 05:52:22 PM 36.7233 -87.6672 243° Southwest 404 465 34,000  Level Memphis Center
Tue 05:53:22 PM 36.6719 -87.7906 243° Southwest 409 471 34,000  Level Memphis Center
Tue 05:54:22 PM 36.6161 -87.9139 241° Southwest 409 471 34,000  Level Memphis Center
Tue 05:55:22 PM 36.5664 -88.0369 243° Southwest 409 471 34,000  Level Memphis Center
Tue 05:56:22 PM 36.5183 -88.1467 241° Southwest 409 471 34,000  Level Memphis Center
Tue 05:57:22 PM 36.4661 -88.2694 242° Southwest 409 471 34,000  Level Memphis Center
Tue 05:58:22 PM 36.4119 -88.3919 241° Southwest 409 471 34,000  Level Memphis Center
Tue 05:59:22 PM 36.3594 -88.5144 242° Southwest 404 465 34,000  Level Memphis Center
Tue 06:00:22 PM 36.3050 -88.6367 241° Southwest 404 465 34,000  Level Memphis Center
Tue 06:01:22 PM 36.2503 -88.7589 241° Southwest 404 465 34,000  Level Memphis Center
Tue 06:02:22 PM 36.1978 -88.8756 241° Southwest 399 459 34,000  Level Memphis Center
Tue 06:03:22 PM 36.1386 -89.0078 241° Southwest 399 459 34,000  Level Memphis Center
Tue 06:04:22 PM 36.0858 -89.1292 242° Southwest 399 459 34,000  Level Memphis Center
Tue 06:05:22 PM 36.0306 -89.2508 241° Southwest 399 459 34,000  Level Memphis Center
Tue 06:06:22 PM 35.9775 -89.3719 242° Southwest 399 459 34,000  Level Memphis Center
Tue 06:07:22 PM 35.9094 -89.4806 232° Southwest 399 459 34,000  Level Memphis Center
Tue 06:08:22 PM 35.8267 -89.5811 225° Southwest 409 471 34,000  Level Memphis Center
Tue 06:09:22 PM 35.7458 -89.6767 224° Southwest 414 476 34,000  Level Memphis Center
Tue 06:10:22 PM 35.6650 -89.7769 225° Southwest 409 471 34,000  Level Memphis Center
Tue 06:11:22 PM 35.5822 -89.8772 225° Southwest 409 471 34,000  Level Memphis Center
Tue 06:12:22 PM 35.5011 -89.9744 224° Southwest 409 471 34,000  Level Memphis Center
Tue 06:13:22 PM 35.4200 -90.0742 225° Southwest 409 471 34,000  Level Memphis Center
Tue 06:15:22 PM 35.2556 -90.2681 224° Southwest 409 471 34,000  Level Memphis Center
Tue 06:16:22 PM 35.1764 -90.3647 225° Southwest 409 471 34,000  Level Memphis Center
Tue 06:17:22 PM 35.0908 -90.4611 223° Southwest 409 471 34,000  Level Memphis Center
Tue 06:18:22 PM 35.0092 -90.5600 225° Southwest 409 471 34,000  Level Memphis Center
Tue 06:19:22 PM 34.9278 -90.6558 224° Southwest 409 471 34,000  Level Memphis Center
Tue 06:20:22 PM 34.8481 -90.7594 227° Southwest 409 471 34,000  Level Memphis Center
Tue 06:21:22 PM 34.7664 -90.8525 223° Southwest 409 471 34,000  Level Memphis Center
Tue 06:22:22 PM 34.6847 -90.9481 224° Southwest 409 471 34,000  Level Memphis Center
Tue 06:23:22 PM 34.5986 -91.0458 223° Southwest 414 476 34,000  Level Memphis Center
Tue 06:24:22 PM 34.5189 -91.1411 225° Southwest 409 471 34,000  Level Memphis Center
Tue 06:25:22 PM 34.4347 -91.2386 224° Southwest 409 471 34,000  Level Memphis Center
Tue 06:26:22 PM 34.3525 -91.3358 224° Southwest 409 471 34,000  Level Memphis Center
Tue 06:27:22 PM 34.2703 -91.4328 224° Southwest 409 471 34,000  Level Memphis Center
Tue 06:28:22 PM 34.1839 -91.5272 222° Southwest 409 471 34,000  Level Memphis Center
Tue 06:29:22 PM 34.1017 -91.6239 224° Southwest 414 476 34,000  Level Memphis Center
Tue 06:30:22 PM 34.0192 -91.7231 225° Southwest 419 482 34,000  Level Memphis Center
Tue 06:31:22 PM 33.9367 -91.8169 223° Southwest 413 475 34,000  Level Memphis Center
Tue 06:32:22 PM 33.8564 -91.9106 224° Southwest 407 468 34,000  Level Memphis Center
Tue 06:33:55 PM 33.7372 -92.0436 223° Southwest 415 478 34,000  Level Fort Worth Center
Tue 06:34:55 PM 33.6575 -92.1333 223° Southwest 410 472 34,000  Level Fort Worth Center
Tue 06:35:55 PM 33.5736 -92.2231 222° Southwest 410 472 34,000  Level Fort Worth Center
Tue 06:36:55 PM 33.4939 -92.3150 224° Southwest 410 472 34,000  Level Fort Worth Center
Tue 06:37:55 PM 33.4119 -92.4019 222° Southwest 410 472 34,000  Level Fort Worth Center
Tue 06:38:55 PM 33.2964 -92.4358 194° South 403 464 34,000  Level Fort Worth Center
Tue 06:39:55 PM 33.1761 -92.4575 189° South 416 479 34,000  Level Fort Worth Center
Tue 06:40:55 PM 33.0539 -92.4792 188° South 435 501 34,000  Level Fort Worth Center
Tue 06:41:55 PM 32.9336 -92.5006 188° South 441 507 34,000  Level Fort Worth Center
Tue 06:42:55 PM 32.8114 -92.5244 189° South 446 513 34,000  Level Fort Worth Center
Tue 06:43:55 PM 32.6869 -92.5461 188° South 446 513 34,000  Level Fort Worth Center
Tue 06:45:32 PM 32.4872 -92.5836 189° South 445 512 34,000  Level Houston Center
Tue 06:46:35 PM 32.3650 -92.6075 189° South 447 514 34,000  Level Houston Center
Tue 06:47:37 PM 32.2428 -92.6286 188° South 444 511 34,000  Level Houston Center
Tue 06:48:39 PM 32.0967 -92.6558 189° South 442 509 34,000 -387 Level Houston Center
Tue 06:49:41 PM 31.9761 -92.6794 189° South 441 507 33,200 -823 Descending Houston Center
Tue 06:50:43 PM 31.8853 -92.7614 217° Southwest 412 474 32,300 -581 Descending Houston Center
Tue 06:51:45 PM 31.7981 -92.8461 220° Southwest 409 471 32,000 -145 Descending Houston Center
Tue 06:52:47 PM 31.7106 -92.9303 219° Southwest 408 470 32,000  Level Houston Center
Tue 06:53:49 PM 31.6231 -93.0153 220° Southwest 410 472 32,000  Level Houston Center
Tue 06:54:52 PM 31.5169 -93.1181 220° Southwest 412 474 32,000  Level Houston Center
Tue 06:55:54 PM 31.4267 -93.2031 219° Southwest 416 479 32,000  Level Houston Center
Tue 06:56:56 PM 31.3372 -93.2892 219° Southwest 411 473 32,000  Level Houston Center
Tue 06:57:58 PM 31.2517 -93.3708 219° Southwest 407 468 32,000 -48 Level Houston Center
Tue 06:59:00 PM 31.1658 -93.4531 219° Southwest 402 463 31,900  Descending Houston Center
Tue 07:00:02 PM 31.0617 -93.5517 219° Southwest 402 463 32,000 -823 Climbing Houston Center
Tue 07:01:04 PM 30.9758 -93.6328 219° Southwest 400 460 30,200 -1,839 Descending Houston Center
Tue 07:02:06 PM 30.8886 -93.7156 219° Southwest 406 467 28,200 -1,968 Descending Houston Center
Tue 07:03:09 PM 30.8022 -93.7975 219° Southwest 403 464 26,100 -1,824 Descending Houston Center
Tue 07:04:11 PM 30.7175 -93.8764 219° Southwest 394 453 24,400 -1,258 Descending Houston Center
Tue 07:05:13 PM 30.6203 -93.9686 219° Southwest 379 436 23,500 -1,645 Descending Houston Center
Tue 07:06:15 PM 30.5417 -94.0436 219° Southwest 371 427 21,000 -2,598 Descending Houston Center
Tue 07:06:50 PM 30.4922 -94.0881 218° Southwest 365 420 19,300 -2,830 Descending Houston Center
Tue 07:07:08 PM 30.4672 -94.1108 218° Southwest 362 417 18,500 -2,225 Descending Houston Center
Tue 07:08:19 PM 30.3867 -94.1881 220° Southwest 359 413 16,000 -1,985 Descending Houston Center
Tue 07:09:21 PM 30.3122 -94.2569 219° Southwest 347 399 14,100 -2,018 Descending Houston Center
Tue 07:10:12 PM 30.2364 -94.3256 218° Southwest 324 373 12,200 -1,434 Descending Houston Center
Tue 07:11:14 PM 30.1900 -94.4092 237° Southwest 322 371 11,400 -1,059 Descending Houston Center
Tue 07:12:28 PM 30.1731 -94.5086 259° West 292 336 9,800 -1,512 Descending Houston Center
Tue 07:13:17 PM 30.1575 -94.5922 258° West 270 311 8,300 -1,691 Descending Houston Center
Tue 07:14:18 PM 30.1428 -94.6789 259° West 272 313 6,700 -1,131 Descending Houston Center
Tue 07:15:19 PM 30.1300 -94.7625 260° West 258 297 6,000 -553 Descending Houston Center
Tue 07:15:34 PM 30.1278 -94.7775 260° West 263 303 6,000  Level Houston Center
Tue 07:16:21 PM 30.1147 -94.8467 258° West 259 298 6,000  Level Houston Center
Tue 07:16:36 PM 30.1128 -94.8578 259° West 258 297 6,000  Level Houston Center
Tue 07:17:22 PM 30.1042 -94.9325 262° West 267 307 6,000  Level Houston Center
Tue 07:17:38 PM 30.1050 -94.9408 277° West 262 302 6,000  Level Houston Center
Tue 07:18:23 PM 30.1058 -95.0169 271° West 267 307 6,000  Level Houston Center
Tue 07:18:40 PM 30.1061 -95.0250 272° West 263 303 6,000  Level Houston Center
Tue 07:19:25 PM 30.1058 -95.1064 270° West 269 310 6,000  Level Houston Center
Tue 07:19:42 PM 30.1067 -95.1289 272° West 271 312 6,000  Level Houston Center
Tue 07:20:26 PM 30.1053 -95.1933 269° West 271 312 6,000  Level Houston Center
Tue 07:20:44 PM 30.1067 -95.2150 274° West 270 311 6,000  Level Houston Center
Tue 07:21:27 PM 30.1053 -95.2828 269° West 269 310 6,000  Level Houston Center
Tue 07:21:46 PM 30.1067 -95.3006 275° West 268 308 6,000 -492 Level Houston Center
Tue 07:22:28 PM 30.1067 -95.3669 270° West 261 300 5,500 -857 Descending Houston Center
Tue 07:22:49 PM 30.1072 -95.3842 272° West 264 304 5,100 -1,574 Descending Houston Center
Tue 07:23:29 PM 30.1017 -95.4522 265° West 246 283 3,900 -1,452 Descending Houston Center
Tue 07:23:51 PM 30.1014 -95.4639 268° West 253 291 3,600 -885 Descending Houston Center
Tue 07:24:30 PM 30.0900 -95.5308 259° West 244 281 3,000 -581 Descending Houston Center
Tue 07:24:53 PM 30.0758 -95.5475 226° Southwest 246 283 3,000  Level Houston Center

Login

Don't have an account? Register now (free) for customized features, flight alerts, and more!